ADDS METAR Data INFO
IDs: Format: Raw Decoded Include TAF

Data at: 0105 UTC 21 Oct 2017

KASN 210055Z AUTO 00000KT 10SM CLR 14/13 A3019 RMK AO2 T01430125
KASN 210035Z AUTO 00000KT 10SM CLR 15/12 A3019 RMK AO2 T01520124
KASN 210015Z AUTO 00000KT 10SM CLR 16/12 A3018 RMK AO2 T01600122
KASN 202355Z AUTO 00000KT 10SM CLR 17/12 A3018 RMK AO2 T01660124 10257 20166
KASN 202335Z AUTO 00000KT 10SM CLR 18/12 A3018 RMK AO2 T01770122
KASN 202315Z AUTO 00000KT 10SM CLR 19/13 A3017 RMK AO2 T01880128
KASN 202255Z AUTO 00000KT 10SM CLR 21/13 A3017 RMK AO2 T02090126
KASN 202235Z AUTO 00000KT 10SM CLR 23/12 A3017 RMK AO2 T02330124
KASN 202215Z AUTO 00000KT 10SM CLR 24/10 A3016 RMK AO2 T02410098
KASN 202155Z AUTO 08004KT 10SM CLR 25/09 A3016 RMK AO2 T02470086
KASN 202135Z AUTO 09006KT 10SM CLR 25/08 A3016 RMK AO2 T02500076
KASN 202115Z AUTO 11007KT 10SM CLR 26/05 A3017 RMK AO2 LTG DSNT SW T02560051
KASN 202055Z AUTO 11004KT 10SM CLR 26/08 A3017 RMK AO2 T02560079
KASN 202035Z AUTO 07004KT 10SM CLR 25/08 A3017 RMK AO2 T02540084
KASN 202015Z AUTO 00000KT 10SM CLR 25/07 A3018 RMK AO2 LTG DSNT SW T02530074
KASN 201955Z AUTO 08003KT 10SM CLR 25/08 A3018 RMK AO2 T02540076
KASN 201935Z AUTO 10004KT 10SM CLR 25/07 A3019 RMK AO2 T02510070
KASN 201915Z AUTO 00000KT 10SM CLR 25/09 A3020 RMK AO2 T02500093
KASN 201855Z AUTO 00000KT 10SM CLR 25/09 A3021 RMK AO2 T02450093
KASN 201835Z AUTO 00000KT 10SM CLR 25/10 A3022 RMK AO2 T02460100
KASN 201815Z AUTO 00000KT 10SM CLR 24/10 A3023 RMK AO2 T02370096
KASN 201755Z AUTO 00000KT 10SM CLR 23/09 A3025 RMK AO2 T02330086 10235 20051
KASN 201735Z AUTO 00000KT 10SM CLR 23/09 A3026 RMK AO2 T02300090
KASN 201715Z AUTO 00000KT 10SM CLR 23/08 A3027 RMK AO2 T02270083
KASN 201655Z AUTO 00000KT 10SM CLR 22/11 A3028 RMK AO2 T02160107
KASN 201635Z AUTO 00000KT 10SM CLR 21/11 A3029 RMK AO2 LTG DSNT SW T02120112
KASN 201615Z AUTO 00000KT 10SM CLR 20/11 A3030 RMK AO2 T02030107
KASN 201555Z AUTO 07003KT 10SM CLR 19/11 A3030 RMK AO2 LTG DSNT SW T01930107
KASN 201535Z AUTO 00000KT 10SM CLR 18/12 A3030 RMK AO2 T01750115
KASN 201515Z AUTO 00000KT 10SM CLR 16/11 A3031 RMK AO2 T01580110
KASN 201455Z AUTO 00000KT 10SM CLR 14/11 A3031 RMK AO2 T01440107
KASN 201435Z AUTO 00000KT 10SM CLR 13/10 A3032 RMK AO2 T01280099
KASN 201415Z AUTO 00000KT 10SM CLR 12/10 A3031 RMK AO2 T01170095
KASN 201355Z AUTO 00000KT 10SM CLR 11/09 A3031 RMK AO2 T01060091
KASN 201335Z AUTO 00000KT 10SM CLR 09/08 A3031 RMK AO2 T00930082
KASN 201315Z AUTO 00000KT 10SM CLR 08/07 A3031 RMK AO2 T00800072
KASN 201255Z AUTO 00000KT 10SM CLR 07/06 A3031 RMK AO2 T00700064
KASN 201235Z AUTO 00000KT 10SM CLR 06/06 A3030 RMK AO2 T00610058
KASN 201215Z AUTO 00000KT 10SM CLR 06/05 A3030 RMK AO2 T00550051
KASN 201155Z AUTO 00000KT 10SM SCT001 05/05 A3030 RMK AO2 70001 T00530050 10091 20050
KASN 201135Z AUTO 00000KT 10SM SCT001 05/05 A3029 RMK AO2 T00540051
KASN 201115Z AUTO 00000KT 10SM SCT001 06/06 A3029 RMK AO2 T00600059
KASN 201055Z AUTO 00000KT 10SM CLR 06/06 A3029 RMK AO2 T00580057
KASN 201035Z AUTO 00000KT 1 1/4SM BR VV007 06/05 A3029 RMK AO2 T00550054
KASN 201015Z AUTO 00000KT 10SM CLR 06/06 A3028 RMK AO2 T00600056
KASN 200955Z AUTO 00000KT 10SM CLR 07/06 A3027 RMK AO2 T00650062
KASN 200935Z AUTO 00000KT 10SM CLR 07/06 A3027 RMK AO2 T00660064
KASN 200915Z AUTO 00000KT 10SM CLR 07/06 A3027 RMK AO2 T00670063
KASN 200855Z AUTO 00000KT 10SM CLR 07/07 A3026 RMK AO2 T00730071
KASN 200835Z AUTO 00000KT 10SM CLR 07/07 A3026 RMK AO2 T00720070
KASN 200815Z AUTO 00000KT 7SM CLR 07/07 A3026 RMK AO2 T00710068
KASN 200755Z AUTO 00000KT 10SM CLR 08/08 A3026 RMK AO2 T00790076
KASN 200735Z AUTO 00000KT 10SM CLR 08/08 A3026 RMK AO2 T00820078
KASN 200715Z AUTO 00000KT 10SM CLR 08/08 A3026 RMK AO2 T00800077
KASN 200655Z AUTO 00000KT 10SM CLR 08/08 A3026 RMK AO2 T00830077
KASN 200635Z AUTO 00000KT 10SM CLR 09/08 A3026 RMK AO2 T00850080
KASN 200615Z AUTO 00000KT 10SM CLR 09/09 A3026 RMK AO2 T00900086
KASN 200555Z AUTO 00000KT 10SM CLR 09/09 A3026 RMK AO2 T00910086 10166 20089 402420055
KASN 200535Z AUTO 00000KT 10SM CLR 09/09 A3026 RMK AO2 T00940088
KASN 200515Z AUTO 00000KT 10SM CLR 10/10 A3026 RMK AO2 T01000097
KASN 200455Z AUTO 00000KT 10SM CLR 09/09 A3026 RMK AO2 T00920090
KASN 200435Z AUTO 00000KT 10SM CLR 10/10 A3026 RMK AO2 T01030098
KASN 200415Z AUTO 00000KT 10SM CLR 11/10 A3026 RMK AO2 T01050100
KASN 200355Z AUTO 00000KT 10SM CLR 11/10 A3026 RMK AO2 T01050099
KASN 200335Z AUTO 00000KT 10SM CLR 11/10 A3027 RMK AO2 T01070104
KASN 200315Z AUTO 00000KT 10SM CLR 11/11 A3026 RMK AO2 T01100105
KASN 200255Z AUTO 00000KT 10SM CLR 12/11 A3026 RMK AO2 T01160110
KASN 200235Z AUTO 06003KT 10SM CLR 12/11 A3026 RMK AO2 T01180111
KASN 200215Z AUTO 00000KT 10SM CLR 12/11 A3026 RMK AO2 T01220112
KASN 200155Z AUTO 00000KT 10SM CLR 13/12 A3026 RMK AO2 T01250118
KASN 200135Z AUTO 00000KT 10SM CLR 13/12 A3025 RMK AO2 T01290121
KASN 200115Z AUTO 00000KT 10SM CLR 14/12 A3025 RMK AO2 T01350122
KASN 200055Z AUTO 00000KT 10SM CLR 14/12 A3025 RMK AO2 T01410121
KASN 200035Z AUTO 00000KT 10SM CLR 15/13 A3025 RMK AO2 T01510125
KASN 200015Z AUTO 00000KT 10SM CLR 15/13 A3024 RMK AO2 T01520125
KASN 192355Z AUTO 00000KT 10SM CLR 17/13 A3024 RMK AO2 T01650128 10242 20165
KASN 192335Z AUTO 00000KT 10SM CLR 17/13 A3024 RMK AO2 T01700130
KASN 192315Z AUTO 00000KT 10SM CLR 19/13 A3023 RMK AO2 T01850130
KASN 192255Z AUTO 00000KT 10SM CLR 22/11 A3023 RMK AO2 T02180108
KASN 192235Z AUTO 00000KT 10SM CLR 23/11 A3023 RMK AO2 T02250110
KASN 192215Z AUTO 01004KT 10SM CLR 23/10 A3023 RMK AO2 T02310102
KASN 192155Z AUTO 01004KT 10SM CLR 24/09 A3023 RMK AO2 T02350092
KASN 192135Z AUTO 05003KT 10SM CLR 24/09 A3023 RMK AO2 T02360087
KASN 192115Z AUTO 07004KT 10SM CLR 24/09 A3023 RMK AO2 T02400091
KASN 192055Z AUTO 35003KT 10SM CLR 24/09 A3023 RMK AO2 T02380088
KASN 192035Z AUTO 01005KT 10SM CLR 24/10 A3024 RMK AO2 T02390098
KASN 192015Z AUTO 00000KT 10SM CLR 24/10 A3024 RMK AO2 T02390098
KASN 191955Z AUTO 02005KT 10SM CLR 24/11 A3024 RMK AO2 T02410105
KASN 191935Z AUTO 00000KT 10SM CLR 24/10 A3025 RMK AO2 T02370102
KASN 191915Z AUTO 00000KT 10SM CLR 24/10 A3025 RMK AO2 T02380095
KASN 191855Z AUTO 00000KT 10SM CLR 23/10 A3026 RMK AO2 T02310096
KASN 191835Z AUTO 00000KT 10SM CLR 23/10 A3027 RMK AO2 T02300101
KASN 191815Z AUTO 00000KT 10SM CLR 23/11 A3028 RMK AO2 T02270109
KASN 191755Z AUTO 05004KT 10SM CLR 22/11 A3029 RMK AO2 60001 T02240105 10225 20055
KASN 191735Z AUTO 09005KT 10SM CLR 22/11 A3030 RMK AO2 T02230107
KASN 191715Z AUTO 00000KT 10SM CLR 22/10 A3031 RMK AO2 T02170101
KASN 191655Z AUTO 00000KT 10SM CLR 21/10 A3032 RMK AO2 T02090097
KASN 191635Z AUTO 00000KT 10SM CLR 21/10 A3032 RMK AO2 T02090100
KASN 191615Z AUTO 00000KT 10SM CLR 20/09 A3033 RMK AO2 T01980093
KASN 191555Z AUTO 00000KT 10SM CLR 19/10 A3033 RMK AO2 T01920101
KASN 191535Z AUTO 02003KT 10SM CLR 18/10 A3034 RMK AO2 T01770101
KASN 191515Z AUTO 00000KT 10SM CLR 17/10 A3034 RMK AO2 T01700100
KASN 191455Z AUTO 00000KT 10SM CLR 16/10 A3034 RMK AO2 P0001 60001 T01580100
KASN 191435Z AUTO 00000KT 10SM CLR 15/09 A3034 RMK AO2 T01450091
KASN 191415Z AUTO 00000KT 10SM CLR 13/09 A3034 RMK AO2 T01300085
KASN 191355Z AUTO 00000KT 10SM CLR 12/08 A3033 RMK AO2 T01210084
KASN 191335Z AUTO 00000KT 10SM CLR 11/08 A3032 RMK AO2 T01110081
KASN 191315Z AUTO 00000KT 10SM CLR 09/08 A3032 RMK AO2 T00940076